createdAt,value
2018-09-03T00:00:17.402Z,23.07
2018-09-03T00:00:49.448Z,23.14
2018-09-03T00:01:21.510Z,23.09
2018-09-03T00:01:53.580Z,23.09
2018-09-03T00:02:25.714Z,23.04
2018-09-03T00:02:57.753Z,23.09
2018-09-03T00:03:29.801Z,23.15
2018-09-03T00:04:01.866Z,23.04
2018-09-03T00:04:33.912Z,23.09
2018-09-03T00:05:05.924Z,23.1
2018-09-03T00:05:37.986Z,23.06
2018-09-03T00:06:10.003Z,23.07
2018-09-03T00:06:42.080Z,23.01
2018-09-03T00:07:14.160Z,23.06
2018-09-03T00:07:46.229Z,23.14
2018-09-03T00:08:18.298Z,23.07
2018-09-03T00:08:50.422Z,23.12
2018-09-03T00:09:22.537Z,23.09
2018-09-03T00:09:54.594Z,23.04
2018-09-03T00:10:26.639Z,23.07
2018-09-03T00:10:58.662Z,23.04
2018-09-03T00:11:30.726Z,23.07
2018-09-03T00:12:02.803Z,23.04
2018-09-03T00:12:34.886Z,23.24
2018-09-03T00:13:06.966Z,23.01
2018-09-03T00:13:39.109Z,23.01
2018-09-03T00:14:11.174Z,23.06
2018-09-03T00:14:43.234Z,23.14
2018-09-03T00:15:15.305Z,23.03
2018-09-03T00:15:47.325Z,23.07
2018-09-03T00:16:19.399Z,23.01
2018-09-03T00:16:51.423Z,23.07
2018-09-03T00:17:23.488Z,23.06
2018-09-03T00:17:55.528Z,23.04
2018-09-03T00:18:27.596Z,23.06
2018-09-03T00:18:59.668Z,23.06
2018-09-03T00:19:31.731Z,23.06
2018-09-03T00:20:03.752Z,23.06
2018-09-03T00:20:35.807Z,23.03
2018-09-03T00:21:07.878Z,23.06
2018-09-03T00:21:39.929Z,23.01
2018-09-03T00:22:11.997Z,23.12
2018-09-03T00:22:44.059Z,23.12
2018-09-03T00:23:16.060Z,23.03
2018-09-03T00:23:48.092Z,23.04
2018-09-03T00:24:20.149Z,23.09
2018-09-03T00:24:52.188Z,23.14
2018-09-03T00:25:24.249Z,23.03
2018-09-03T00:25:56.290Z,23.07
2018-09-03T00:26:28.359Z,23.03
2018-09-03T00:27:00.405Z,23.09
2018-09-03T00:27:32.471Z,22.99
2018-09-03T00:28:04.506Z,23.04
2018-09-03T00:28:36.555Z,23
2018-09-03T00:29:08.620Z,23.07
2018-09-03T00:29:40.691Z,23.03
2018-09-03T00:30:12.773Z,23.03
2018-09-03T00:30:44.849Z,23.09
2018-09-03T00:31:16.914Z,23.04
2018-09-03T00:31:48.956Z,23.03
2018-09-03T00:32:21.164Z,23.04
2018-09-03T00:32:53.243Z,23.07
2018-09-03T00:33:25.307Z,23.01
2018-09-03T00:33:57.353Z,23
2018-09-03T00:34:29.439Z,22.97
2018-09-03T00:35:01.473Z,23.06
2018-09-03T00:35:33.550Z,23.03
2018-09-03T00:36:05.579Z,23.03
2018-09-03T00:36:37.637Z,23.03
2018-09-03T00:37:09.676Z,23.06
2018-09-03T00:37:41.774Z,22.99
2018-09-03T00:38:13.884Z,23.06
2018-09-03T00:38:45.941Z,22.94
2018-09-03T00:39:18.000Z,23
2018-09-03T00:39:50.023Z,23.06
2018-09-03T00:40:22.116Z,23
2018-09-03T00:40:54.171Z,23.06
2018-09-03T00:41:26.243Z,23.07
2018-09-03T00:41:58.304Z,23
2018-09-03T00:42:30.386Z,23.07
2018-09-03T00:43:02.451Z,23
2018-09-03T00:43:34.635Z,22.97
2018-09-03T00:44:06.716Z,22.99
2018-09-03T00:44:38.772Z,23.04
2018-09-03T00:45:10.803Z,23.06
2018-09-03T00:45:42.836Z,23.03
2018-09-03T00:46:15.418Z,23.03
2018-09-03T00:46:47.486Z,23.06
2018-09-03T00:47:19.523Z,23.03
2018-09-03T00:47:51.591Z,22.97
2018-09-03T00:48:23.637Z,22.97
2018-09-03T00:48:55.695Z,22.92
2018-09-03T00:49:27.749Z,23.04
2018-09-03T00:49:59.874Z,22.97
2018-09-03T00:50:31.913Z,22.94
2018-09-03T00:51:03.987Z,23.01
2018-09-03T00:51:36.027Z,22.91
2018-09-03T00:52:08.062Z,22.96
2018-09-03T00:52:40.116Z,22.97
2018-09-03T00:53:12.168Z,23.04
2018-09-03T00:53:44.359Z,22.91
2018-09-03T00:54:16.475Z,22.97
2018-09-03T00:54:48.513Z,22.91
2018-09-03T00:55:20.591Z,22.94
2018-09-03T00:55:52.630Z,22.91
2018-09-03T00:56:24.682Z,22.92
2018-09-03T00:56:56.724Z,22.92
2018-09-03T00:57:28.750Z,22.96
2018-09-03T00:58:00.821Z,22.91
2018-09-03T00:58:32.896Z,22.88
2018-09-03T00:59:04.937Z,22.89
2018-09-03T00:59:36.969Z,22.92
2018-09-03T01:00:09.015Z,22.96
2018-09-03T01:00:41.103Z,22.99
2018-09-03T01:01:13.119Z,22.86
2018-09-03T01:01:45.181Z,22.94
2018-09-03T01:02:17.263Z,22.88
2018-09-03T01:02:49.310Z,22.92
2018-09-03T01:03:21.348Z,22.94
2018-09-03T01:03:53.420Z,22.96
2018-09-03T01:04:25.461Z,22.94
2018-09-03T01:04:57.487Z,22.89
2018-09-03T01:05:29.559Z,22.91
2018-09-03T01:06:01.573Z,22.91
2018-09-03T01:06:33.650Z,22.99
2018-09-03T01:07:05.653Z,22.88
2018-09-03T01:07:37.728Z,22.94
2018-09-03T01:08:09.803Z,22.92
2018-09-03T01:08:41.876Z,22.89
2018-09-03T01:09:13.931Z,22.91
2018-09-03T01:09:45.990Z,22.88
2018-09-03T01:10:18.031Z,22.89
2018-09-03T01:10:50.077Z,22.91
2018-09-03T01:11:22.124Z,22.92
2018-09-03T01:11:54.193Z,22.94
2018-09-03T01:12:26.224Z,22.89
2018-09-03T01:12:58.372Z,22.91
2018-09-03T01:13:30.411Z,22.89
2018-09-03T01:14:02.459Z,22.92
2018-09-03T01:14:34.600Z,22.92
2018-09-03T01:15:06.761Z,22.88
2018-09-03T01:15:38.871Z,22.88
2018-09-03T01:16:10.933Z,22.86
2018-09-03T01:16:43.007Z,22.91
2018-09-03T01:17:15.078Z,22.86
2018-09-03T01:17:47.126Z,22.91
2018-09-03T01:18:19.182Z,22.86
2018-09-03T01:18:51.232Z,22.89
2018-09-03T01:19:23.398Z,22.88
2018-09-03T01:19:55.455Z,22.88
2018-09-03T01:20:27.516Z,22.86
2018-09-03T01:20:59.546Z,22.88
2018-09-03T01:21:31.594Z,22.89
2018-09-03T01:22:03.740Z,22.85
2018-09-03T01:22:35.765Z,22.88
2018-09-03T01:23:07.867Z,22.92
2018-09-03T01:23:39.948Z,22.86
2018-09-03T01:24:11.957Z,22.89
2018-09-03T01:24:44.537Z,22.89
2018-09-03T01:25:16.590Z,22.81
2018-09-03T01:25:48.640Z,22.89
2018-09-03T01:26:20.721Z,22.81
2018-09-03T01:26:52.780Z,22.78
2018-09-03T01:27:24.807Z,22.88
2018-09-03T01:27:56.852Z,22.85
2018-09-03T01:28:28.908Z,22.88
2018-09-03T01:29:00.982Z,22.81
2018-09-03T01:29:33.071Z,22.86
2018-09-03T01:30:05.143Z,22.79
2018-09-03T01:30:37.210Z,22.79
2018-09-03T01:31:09.805Z,22.82
2018-09-03T01:31:41.874Z,22.76
2018-09-03T01:32:13.903Z,22.78
2018-09-03T01:32:45.939Z,22.86
2018-09-03T01:33:18.144Z,22.86
2018-09-03T01:33:50.243Z,22.78
2018-09-03T01:34:22.245Z,22.82
2018-09-03T01:34:54.312Z,22.88
2018-09-03T01:35:26.382Z,22.86
2018-09-03T01:35:58.467Z,22.84
2018-09-03T01:36:30.513Z,22.85
2018-09-03T01:37:02.525Z,22.85
2018-09-03T01:37:34.708Z,22.81
2018-09-03T01:38:06.731Z,22.81
2018-09-03T01:38:38.775Z,22.84
2018-09-03T01:39:10.790Z,22.85
2018-09-03T01:39:42.838Z,22.85
2018-09-03T01:40:15.430Z,22.82
2018-09-03T01:40:47.429Z,22.86
2018-09-03T01:41:19.449Z,22.85
2018-09-03T01:41:51.443Z,22.78
2018-09-03T01:42:23.517Z,22.75
2018-09-03T01:42:55.678Z,22.84
2018-09-03T01:43:27.802Z,22.79
2018-09-03T01:43:59.839Z,22.84
2018-09-03T01:44:31.868Z,22.85
2018-09-03T01:45:03.923Z,22.81
2018-09-03T01:45:36.030Z,22.71
2018-09-03T01:46:08.166Z,22.85
2018-09-03T01:46:40.224Z,22.79
2018-09-03T01:47:12.299Z,22.79
2018-09-03T01:47:44.372Z,22.81
2018-09-03T01:48:16.414Z,22.78
2018-09-03T01:48:48.477Z,22.82
2018-09-03T01:49:20.529Z,22.82
2018-09-03T01:49:52.580Z,22.79
2018-09-03T01:50:24.642Z,22.81
2018-09-03T01:50:56.675Z,22.79
2018-09-03T01:51:28.744Z,22.85
2018-09-03T01:52:00.791Z,22.82
2018-09-03T01:52:32.954Z,22.76
2018-09-03T01:53:05.001Z,22.81
2018-09-03T01:53:37.065Z,22.81
2018-09-03T01:54:09.131Z,22.78
2018-09-03T01:54:41.180Z,22.78
2018-09-03T01:55:13.226Z,22.79
2018-09-03T01:55:45.248Z,22.78
2018-09-03T01:56:18.228Z,22.78
2018-09-03T01:56:50.243Z,22.79
2018-09-03T01:57:22.292Z,22.76
2018-09-03T01:57:54.374Z,22.69
2018-09-03T01:58:26.442Z,22.75
2018-09-03T01:58:58.506Z,22.79
2018-09-03T01:59:30.653Z,22.81
2018-09-03T02:00:02.713Z,22.71
2018-09-03T02:00:34.757Z,22.78
2018-09-03T02:01:06.843Z,22.73
2018-09-03T02:01:38.898Z,22.79
2018-09-03T02:02:10.954Z,22.75
2018-09-03T02:02:42.985Z,22.71
2018-09-03T02:03:15.116Z,22.76
2018-09-03T02:03:47.198Z,22.81
2018-09-03T02:04:19.244Z,22.69
2018-09-03T02:04:51.290Z,22.81
2018-09-03T02:05:23.360Z,22.75
2018-09-03T02:05:55.476Z,22.76
2018-09-03T02:06:27.501Z,22.78
2018-09-03T02:06:59.565Z,22.85
2018-09-03T02:07:31.606Z,22.84
2018-09-03T02:08:03.679Z,22.73
2018-09-03T02:08:35.717Z,22.76
2018-09-03T02:09:07.787Z,22.76
2018-09-03T02:09:39.794Z,22.67
2018-09-03T02:10:11.821Z,22.71
2018-09-03T02:10:43.888Z,22.71
2018-09-03T02:11:15.897Z,22.78
2018-09-03T02:11:47.969Z,22.75
2018-09-03T02:12:19.976Z,22.82
2018-09-03T02:12:52.037Z,22.81
2018-09-03T02:13:24.064Z,22.7
2018-09-03T02:13:56.132Z,22.7
2018-09-03T02:14:28.207Z,22.69
2018-09-03T02:15:00.280Z,22.75
2018-09-03T02:15:32.317Z,22.78
2018-09-03T02:16:04.365Z,22.73
2018-09-03T02:16:36.414Z,22.75
2018-09-03T02:17:08.467Z,22.75
2018-09-03T02:17:40.507Z,22.7
2018-09-03T02:18:12.546Z,22.7
2018-09-03T02:18:44.600Z,22.71
2018-09-03T02:19:17.477Z,22.75
2018-09-03T02:19:49.614Z,22.71
2018-09-03T02:20:22.352Z,22.73
2018-09-03T02:20:54.389Z,22.7
2018-09-03T02:21:27.135Z,22.69
2018-09-03T02:21:59.192Z,22.7
2018-09-03T02:22:31.249Z,22.73
2018-09-03T02:23:03.271Z,22.7
2018-09-03T02:23:35.337Z,22.73
2018-09-03T02:24:07.416Z,22.7
2018-09-03T02:24:39.478Z,22.73
2018-09-03T02:25:11.489Z,22.73
2018-09-03T02:25:43.642Z,22.69
2018-09-03T02:26:15.661Z,22.71
2018-09-03T02:26:47.726Z,22.69
2018-09-03T02:27:19.785Z,22.76
2018-09-03T02:27:51.809Z,22.69
2018-09-03T02:28:23.854Z,22.76
2018-09-03T02:28:55.889Z,22.73
2018-09-03T02:29:27.931Z,22.71
2018-09-03T02:29:59.960Z,22.71
2018-09-03T02:30:32.040Z,22.66
2018-09-03T02:31:04.061Z,22.69
2018-09-03T02:31:36.104Z,22.81
2018-09-03T02:32:08.255Z,22.73
2018-09-03T02:32:40.328Z,22.7
2018-09-03T02:33:12.469Z,22.7
2018-09-03T02:33:44.546Z,22.71
2018-09-03T02:34:16.620Z,22.71
2018-09-03T02:34:48.696Z,22.71
2018-09-03T02:35:20.703Z,22.73
2018-09-03T02:35:52.725Z,22.76
2018-09-03T02:36:24.793Z,22.71
2018-09-03T02:36:56.943Z,22.66
2018-09-03T02:37:29.524Z,22.73
2018-09-03T02:38:01.618Z,22.75
2018-09-03T02:38:33.625Z,22.67
2018-09-03T02:39:05.699Z,22.71
2018-09-03T02:39:37.724Z,22.61
2018-09-03T02:40:09.797Z,22.63
2018-09-03T02:40:41.865Z,22.61
2018-09-03T02:41:13.920Z,22.69
2018-09-03T02:41:46.080Z,22.66
2018-09-03T02:42:18.124Z,22.61
2018-09-03T02:42:50.168Z,22.75
2018-09-03T02:43:22.267Z,22.63
2018-09-03T02:43:54.338Z,22.61
2018-09-03T02:44:26.372Z,22.59
2018-09-03T02:44:58.402Z,22.66
2018-09-03T02:45:30.472Z,22.63
2018-09-03T02:46:02.569Z,22.66
2018-09-03T02:46:34.610Z,22.63
2018-09-03T02:47:06.649Z,22.64
2018-09-03T02:47:38.696Z,22.6
2018-09-03T02:48:10.819Z,22.69
2018-09-03T02:48:42.816Z,22.6
2018-09-03T02:49:14.877Z,22.63
2018-09-03T02:49:46.930Z,22.63
2018-09-03T02:50:18.953Z,22.66
2018-09-03T02:50:50.985Z,22.67
2018-09-03T02:51:23.049Z,22.55
2018-09-03T02:51:55.136Z,22.54
2018-09-03T02:52:27.261Z,22.6
2018-09-03T02:52:59.289Z,22.6
2018-09-03T02:53:31.419Z,22.67
2018-09-03T02:54:03.451Z,22.64
2018-09-03T02:54:35.475Z,22.61
2018-09-03T02:55:07.480Z,22.61
2018-09-03T02:55:39.528Z,22.57
2018-09-03T02:56:11.564Z,22.66
2018-09-03T02:56:43.612Z,22.59
2018-09-03T02:57:15.663Z,22.57
2018-09-03T02:57:47.740Z,22.63
2018-09-03T02:58:19.812Z,22.55
2018-09-03T02:58:51.854Z,22.6
2018-09-03T02:59:23.903Z,22.55
2018-09-03T02:59:55.932Z,22.59
2018-09-03T03:00:27.979Z,22.63
2018-09-03T03:01:00.033Z,22.64
2018-09-03T03:01:32.061Z,22.63
2018-09-03T03:02:04.117Z,22.61
2018-09-03T03:02:36.168Z,22.55
2018-09-03T03:03:08.241Z,22.66
2018-09-03T03:03:40.291Z,22.67
2018-09-03T03:04:12.363Z,22.66
2018-09-03T03:04:44.432Z,22.61
2018-09-03T03:05:16.466Z,22.59
2018-09-03T03:05:48.982Z,22.59
2018-09-03T03:06:20.983Z,22.61
2018-09-03T03:06:53.075Z,22.6
2018-09-03T03:07:25.175Z,22.59
2018-09-03T03:07:57.241Z,22.66
2018-09-03T03:08:29.293Z,22.63
2018-09-03T03:09:01.369Z,22.6
2018-09-03T03:09:33.435Z,22.63
2018-09-03T03:10:05.452Z,22.64
2018-09-03T03:10:37.546Z,22.6
2018-09-03T03:11:09.599Z,22.6
2018-09-03T03:11:41.687Z,22.6
2018-09-03T03:12:13.776Z,22.6
2018-09-03T03:12:45.793Z,22.64
2018-09-03T03:13:17.848Z,22.61
2018-09-03T03:13:49.991Z,22.52
2018-09-03T03:14:22.051Z,22.55
2018-09-03T03:14:54.110Z,22.59
2018-09-03T03:15:26.192Z,22.55
2018-09-03T03:15:58.192Z,22.57
2018-09-03T03:16:30.224Z,22.57
2018-09-03T03:17:02.282Z,22.57
2018-09-03T03:17:34.363Z,22.54
2018-09-03T03:18:06.437Z,22.55
2018-09-03T03:18:38.522Z,22.55
2018-09-03T03:19:10.503Z,22.55
2018-09-03T03:19:42.569Z,22.6
2018-09-03T03:20:14.624Z,22.6
2018-09-03T03:20:46.669Z,22.61
2018-09-03T03:21:18.701Z,22.59
2018-09-03T03:21:50.769Z,22.51
2018-09-03T03:22:22.850Z,22.52
2018-09-03T03:22:54.889Z,22.48
2018-09-03T03:23:26.935Z,22.55
2018-09-03T03:23:58.980Z,22.51
2018-09-03T03:24:31.044Z,22.49
2018-09-03T03:25:03.052Z,22.52
2018-09-03T03:25:35.100Z,22.54
2018-09-03T03:26:07.239Z,22.55
2018-09-03T03:26:39.300Z,22.46
2018-09-03T03:27:11.360Z,22.46
2018-09-03T03:27:43.439Z,22.45
2018-09-03T03:28:15.503Z,22.55
2018-09-03T03:28:47.520Z,22.49
2018-09-03T03:29:19.548Z,22.44
2018-09-03T03:29:51.658Z,22.45
